DAUL/LOO METAR and TAF weather

Enter ICAO airport designator
Station Type Date Time Source
DAUL METAR 2019/08/21 09:00 UTC NOAA

DAUL 210900Z 06014KT 8000 NSC 26/18 Q1020


Station Type Date Time Source
DAUL Decoded METAR 2019/08/21 09:00 UTC NOAA

Station name not available
Aug 21, 2019 - 05:00 AM EDT / 2019.08.21 0900 UTC
Wind: from the ENE (060 degrees) at 16 MPH (14 KT):0
Visibility: 4 mile(s):0
Temperature: 78 F (26 C)
Dew Point: 64 F (18 C)
Relative Humidity: 61%
Pressure (altimeter): 30.12 in. Hg (1020 hPa)
ob: DAUL 210900Z 06014KT 8000 NSC 26/18 Q1020
cycle: 9

Station Type Date Time Source
DAUL TAF 2017/11/09 18:03 UTC NOAA

TAF DAUL 091700Z 0918/1009 02012KT 9999 SCT030 SCT100 PROB40
TEMPO 0918/0924 35020G30KT 4000 -TSRA FEW030CB

Example: see airport list